EMV weather

Emporia Greensville Regional Airport
Emporia, Virginia, United States

Public forecast

Using degrees Fahrenheit for public forecast. Weather courtesy of forecast.io.

METAR (pilot weather report)

Retrieved 2019/07/17 10:35 UTC (1 hour ago):

KEMV 171035Z AUTO 00000KT 5SM CLR 23/23 A3006 RMK AO2 P0001 T02310231

TAF (pilot weather forecast)

Closest forecast is Richmond International Airport, 49.7 nm (92.1 km) N. Retrieved 2019/07/17 06:39 UTC (5 hours ago):

TAF KRIC 170536Z 1706/1806 19005KT P6SM VCSH BKN150 FM170700 VRB03KT P6SM BKN150 FM171500 23009KT P6SM SCT150 FM172200 20007KT P6SM SCT060 FM180200 23005KT P6SM BKN100